sensor_id;sensor_type;location;lat;lon;timestamp;P1;durP1;ratioP1;P2;durP2;ratioP2
53269;SDS011;39159;45.634;9.420;2024-01-25T00:00:17;30.60;;;17.00;;
53269;SDS011;39159;45.634;9.420;2024-01-25T00:02:43;32.22;;;17.10;;
53269;SDS011;39159;45.634;9.420;2024-01-25T00:05:08;29.65;;;16.60;;
53269;SDS011;39159;45.634;9.420;2024-01-25T00:07:34;29.42;;;16.33;;
53269;SDS011;39159;45.634;9.420;2024-01-25T00:09:59;29.33;;;16.67;;
53269;SDS011;39159;45.634;9.420;2024-01-25T00:12:25;29.70;;;16.67;;
53269;SDS011;39159;45.634;9.420;2024-01-25T00:14:51;31.15;;;17.67;;
53269;SDS011;39159;45.634;9.420;2024-01-25T00:17:17;30.20;;;16.77;;
53269;SDS011;39159;45.634;9.420;2024-01-25T00:19:43;33.45;;;16.88;;
53269;SDS011;39159;45.634;9.420;2024-01-25T00:22:08;30.48;;;16.98;;
53269;SDS011;39159;45.634;9.420;2024-01-25T00:24:33;31.45;;;16.42;;
53269;SDS011;39159;45.634;9.420;2024-01-25T00:26:59;31.98;;;17.23;;
53269;SDS011;39159;45.634;9.420;2024-01-25T00:29:24;33.85;;;16.50;;
53269;SDS011;39159;45.634;9.420;2024-01-25T00:31:50;32.00;;;16.30;;
53269;SDS011;39159;45.634;9.420;2024-01-25T00:34:15;30.52;;;16.45;;
53269;SDS011;39159;45.634;9.420;2024-01-25T00:36:41;28.35;;;15.85;;
53269;SDS011;39159;45.634;9.420;2024-01-25T00:39:06;27.27;;;15.52;;
53269;SDS011;39159;45.634;9.420;2024-01-25T00:41:33;24.58;;;15.00;;
53269;SDS011;39159;45.634;9.420;2024-01-25T00:43:59;27.73;;;15.23;;
53269;SDS011;39159;45.634;9.420;2024-01-25T00:46:25;28.33;;;15.48;;
53269;SDS011;39159;45.634;9.420;2024-01-25T00:48:50;25.38;;;15.25;;
53269;SDS011;39159;45.634;9.420;2024-01-25T00:51:17;30.15;;;16.02;;
53269;SDS011;39159;45.634;9.420;2024-01-25T00:53:47;27.20;;;16.55;;
53269;SDS011;39159;45.634;9.420;2024-01-25T00:56:12;30.63;;;16.65;;
53269;SDS011;39159;45.634;9.420;2024-01-25T00:58:38;26.40;;;15.23;;
53269;SDS011;39159;45.634;9.420;2024-01-25T01:01:04;25.60;;;14.95;;
53269;SDS011;39159;45.634;9.420;2024-01-25T01:03:29;26.30;;;14.38;;
53269;SDS011;39159;45.634;9.420;2024-01-25T01:05:55;25.20;;;15.27;;
53269;SDS011;39159;45.634;9.420;2024-01-25T01:08:22;24.65;;;14.50;;
53269;SDS011;39159;45.634;9.420;2024-01-25T01:10:47;25.77;;;14.27;;
53269;SDS011;39159;45.634;9.420;2024-01-25T01:13:13;26.75;;;14.40;;
53269;SDS011;39159;45.634;9.420;2024-01-25T01:15:38;29.90;;;15.80;;
53269;SDS011;39159;45.634;9.420;2024-01-25T01:18:04;26.13;;;15.30;;
53269;SDS011;39159;45.634;9.420;2024-01-25T01:20:30;27.02;;;14.77;;
53269;SDS011;39159;45.634;9.420;2024-01-25T01:22:55;27.17;;;15.30;;
53269;SDS011;39159;45.634;9.420;2024-01-25T01:25:21;26.25;;;15.27;;
53269;SDS011;39159;45.634;9.420;2024-01-25T01:27:47;30.73;;;15.25;;
53269;SDS011;39159;45.634;9.420;2024-01-25T01:30:12;28.85;;;15.25;;
53269;SDS011;39159;45.634;9.420;2024-01-25T01:32:37;27.20;;;15.20;;
53269;SDS011;39159;45.634;9.420;2024-01-25T01:35:03;24.17;;;14.18;;
53269;SDS011;39159;45.634;9.420;2024-01-25T01:37:29;27.50;;;16.65;;
53269;SDS011;39159;45.634;9.420;2024-01-25T01:39:54;24.65;;;14.88;;
53269;SDS011;39159;45.634;9.420;2024-01-25T01:42:21;28.58;;;16.73;;
53269;SDS011;39159;45.634;9.420;2024-01-25T01:44:47;31.23;;;16.38;;
53269;SDS011;39159;45.634;9.420;2024-01-25T01:47:12;26.30;;;16.25;;
53269;SDS011;39159;45.634;9.420;2024-01-25T01:49:38;28.52;;;16.42;;
53269;SDS011;39159;45.634;9.420;2024-01-25T01:52:03;31.48;;;18.10;;
53269;SDS011;39159;45.634;9.420;2024-01-25T01:54:29;30.15;;;17.83;;
53269;SDS011;39159;45.634;9.420;2024-01-25T01:56:55;31.10;;;18.38;;
53269;SDS011;39159;45.634;9.420;2024-01-25T01:59:20;42.33;;;21.45;;
53269;SDS011;39159;45.634;9.420;2024-01-25T02:01:46;49.17;;;24.75;;
53269;SDS011;39159;45.634;9.420;2024-01-25T02:04:11;48.47;;;26.73;;
53269;SDS011;39159;45.634;9.420;2024-01-25T02:06:37;50.97;;;28.50;;
53269;SDS011;39159;45.634;9.420;2024-01-25T02:09:02;45.58;;;25.67;;
53269;SDS011;39159;45.634;9.420;2024-01-25T02:11:28;56.97;;;29.58;;
53269;SDS011;39159;45.634;9.420;2024-01-25T02:13:54;55.50;;;29.05;;
53269;SDS011;39159;45.634;9.420;2024-01-25T02:16:19;63.50;;;33.17;;
53269;SDS011;39159;45.634;9.420;2024-01-25T02:18:45;72.65;;;38.75;;
53269;SDS011;39159;45.634;9.420;2024-01-25T02:21:11;72.10;;;41.22;;
53269;SDS011;39159;45.634;9.420;2024-01-25T02:23:36;83.72;;;43.92;;
53269;SDS011;39159;45.634;9.420;2024-01-25T02:26:02;85.72;;;44.08;;
53269;SDS011;39159;45.634;9.420;2024-01-25T02:28:27;83.55;;;46.33;;
53269;SDS011;39159;45.634;9.420;2024-01-25T02:30:53;83.57;;;45.15;;
53269;SDS011;39159;45.634;9.420;2024-01-25T02:33:18;92.57;;;47.30;;
53269;SDS011;39159;45.634;9.420;2024-01-25T02:35:43;85.55;;;47.55;;
53269;SDS011;39159;45.634;9.420;2024-01-25T02:38:09;92.25;;;47.15;;
53269;SDS011;39159;45.634;9.420;2024-01-25T02:40:34;92.50;;;49.92;;
53269;SDS011;39159;45.634;9.420;2024-01-25T02:42:59;100.13;;;51.33;;
53269;SDS011;39159;45.634;9.420;2024-01-25T02:45:25;91.15;;;50.22;;
53269;SDS011;39159;45.634;9.420;2024-01-25T02:47:50;91.00;;;48.65;;
53269;SDS011;39159;45.634;9.420;2024-01-25T02:50:16;91.60;;;48.55;;
53269;SDS011;39159;45.634;9.420;2024-01-25T02:52:41;85.93;;;44.67;;
53269;SDS011;39159;45.634;9.420;2024-01-25T02:55:07;79.53;;;44.22;;
53269;SDS011;39159;45.634;9.420;2024-01-25T02:57:32;82.68;;;41.92;;
53269;SDS011;39159;45.634;9.420;2024-01-25T02:59:58;82.78;;;42.55;;
53269;SDS011;39159;45.634;9.420;2024-01-25T03:02:24;79.03;;;42.20;;
53269;SDS011;39159;45.634;9.420;2024-01-25T03:04:49;79.00;;;41.90;;
53269;SDS011;39159;45.634;9.420;2024-01-25T03:07:14;80.70;;;43.10;;
53269;SDS011;39159;45.634;9.420;2024-01-25T03:09:40;81.78;;;41.35;;
53269;SDS011;39159;45.634;9.420;2024-01-25T03:12:05;89.93;;;42.85;;
53269;SDS011;39159;45.634;9.420;2024-01-25T03:14:31;80.05;;;42.35;;
53269;SDS011;39159;45.634;9.420;2024-01-25T03:16:56;92.15;;;45.53;;
53269;SDS011;39159;45.634;9.420;2024-01-25T03:19:25;88.85;;;45.28;;
53269;SDS011;39159;45.634;9.420;2024-01-25T03:21:52;91.05;;;45.95;;
53269;SDS011;39159;45.634;9.420;2024-01-25T03:24:17;96.97;;;47.67;;
53269;SDS011;39159;45.634;9.420;2024-01-25T03:26:43;85.72;;;45.97;;
53269;SDS011;39159;45.634;9.420;2024-01-25T03:29:08;88.78;;;45.10;;
53269;SDS011;39159;45.634;9.420;2024-01-25T03:31:34;88.97;;;44.30;;
53269;SDS011;39159;45.634;9.420;2024-01-25T03:34:00;81.68;;;42.67;;
53269;SDS011;39159;45.634;9.420;2024-01-25T03:36:26;83.93;;;41.75;;
53269;SDS011;39159;45.634;9.420;2024-01-25T03:38:51;90.03;;;44.75;;
53269;SDS011;39159;45.634;9.420;2024-01-25T03:41:17;91.07;;;45.60;;
53269;SDS011;39159;45.634;9.420;2024-01-25T03:43:42;93.68;;;47.95;;
53269;SDS011;39159;45.634;9.420;2024-01-25T03:46:09;86.85;;;45.97;;
53269;SDS011;39159;45.634;9.420;2024-01-25T03:48:35;92.88;;;47.95;;
53269;SDS011;39159;45.634;9.420;2024-01-25T03:51:00;91.20;;;46.72;;
53269;SDS011;39159;45.634;9.420;2024-01-25T03:53:26;95.07;;;46.85;;
53269;SDS011;39159;45.634;9.420;2024-01-25T03:55:51;95.15;;;46.90;;
53269;SDS011;39159;45.634;9.420;2024-01-25T03:58:17;95.00;;;48.08;;
53269;SDS011;39159;45.634;9.420;2024-01-25T04:00:45;100.43;;;50.03;;
53269;SDS011;39159;45.634;9.420;2024-01-25T04:03:10;108.75;;;50.97;;
53269;SDS011;39159;45.634;9.420;2024-01-25T04:05:36;93.78;;;48.42;;
53269;SDS011;39159;45.634;9.420;2024-01-25T04:08:02;95.28;;;48.60;;
53269;SDS011;39159;45.634;9.420;2024-01-25T04:10:28;102.57;;;50.28;;
53269;SDS011;39159;45.634;9.420;2024-01-25T04:12:53;99.85;;;50.45;;
53269;SDS011;39159;45.634;9.420;2024-01-25T04:15:19;99.80;;;50.38;;
53269;SDS011;39159;45.634;9.420;2024-01-25T04:17:44;107.13;;;54.35;;
53269;SDS011;39159;45.634;9.420;2024-01-25T04:20:09;97.40;;;49.92;;
53269;SDS011;39159;45.634;9.420;2024-01-25T04:22:35;106.15;;;52.63;;
53269;SDS011;39159;45.634;9.420;2024-01-25T04:25:01;110.10;;;54.85;;
53269;SDS011;39159;45.634;9.420;2024-01-25T04:27:26;117.35;;;54.88;;
53269;SDS011;39159;45.634;9.420;2024-01-25T04:29:52;106.20;;;55.25;;
53269;SDS011;39159;45.634;9.420;2024-01-25T04:32:17;109.15;;;52.13;;
53269;SDS011;39159;45.634;9.420;2024-01-25T04:34:43;102.35;;;52.95;;
53269;SDS011;39159;45.634;9.420;2024-01-25T04:37:09;114.80;;;55.22;;
53269;SDS011;39159;45.634;9.420;2024-01-25T04:39:34;103.97;;;53.70;;
53269;SDS011;39159;45.634;9.420;2024-01-25T04:41:59;107.97;;;54.60;;
53269;SDS011;39159;45.634;9.420;2024-01-25T04:44:25;107.60;;;53.50;;
53269;SDS011;39159;45.634;9.420;2024-01-25T04:46:50;111.68;;;54.20;;
53269;SDS011;39159;45.634;9.420;2024-01-25T04:49:17;109.93;;;53.58;;
53269;SDS011;39159;45.634;9.420;2024-01-25T04:51:42;109.20;;;51.47;;
53269;SDS011;39159;45.634;9.420;2024-01-25T04:54:08;111.80;;;51.20;;
53269;SDS011;39159;45.634;9.420;2024-01-25T04:56:37;103.82;;;52.88;;
53269;SDS011;39159;45.634;9.420;2024-01-25T04:59:03;112.07;;;55.05;;
53269;SDS011;39159;45.634;9.420;2024-01-25T05:01:28;100.57;;;51.28;;
53269;SDS011;39159;45.634;9.420;2024-01-25T05:03:53;104.75;;;51.28;;
53269;SDS011;39159;45.634;9.420;2024-01-25T05:06:19;103.82;;;52.53;;
53269;SDS011;39159;45.634;9.420;2024-01-25T05:08:44;108.55;;;54.28;;
53269;SDS011;39159;45.634;9.420;2024-01-25T05:11:10;108.72;;;55.10;;
53269;SDS011;39159;45.634;9.420;2024-01-25T05:13:35;103.15;;;51.67;;
53269;SDS011;39159;45.634;9.420;2024-01-25T05:16:00;112.85;;;54.20;;
53269;SDS011;39159;45.634;9.420;2024-01-25T05:18:26;113.03;;;53.88;;
53269;SDS011;39159;45.634;9.420;2024-01-25T05:20:51;107.38;;;54.30;;
53269;SDS011;39159;45.634;9.420;2024-01-25T05:23:17;108.45;;;54.55;;
53269;SDS011;39159;45.634;9.420;2024-01-25T05:25:42;105.22;;;52.65;;
53269;SDS011;39159;45.634;9.420;2024-01-25T05:28:07;110.43;;;54.20;;
53269;SDS011;39159;45.634;9.420;2024-01-25T05:30:33;105.88;;;53.47;;
53269;SDS011;39159;45.634;9.420;2024-01-25T05:32:59;107.85;;;54.80;;
53269;SDS011;39159;45.634;9.420;2024-01-25T05:35:24;113.10;;;56.15;;
53269;SDS011;39159;45.634;9.420;2024-01-25T05:37:50;104.28;;;50.92;;
53269;SDS011;39159;45.634;9.420;2024-01-25T05:40:15;110.35;;;53.38;;
53269;SDS011;39159;45.634;9.420;2024-01-25T05:42:41;118.32;;;57.53;;
53269;SDS011;39159;45.634;9.420;2024-01-25T05:45:06;109.10;;;53.75;;
53269;SDS011;39159;45.634;9.420;2024-01-25T05:47:32;111.47;;;53.17;;
53269;SDS011;39159;45.634;9.420;2024-01-25T05:49:59;104.30;;;49.95;;
53269;SDS011;39159;45.634;9.420;2024-01-25T05:52:25;110.57;;;54.78;;
53269;SDS011;39159;45.634;9.420;2024-01-25T05:54:50;101.60;;;51.92;;
53269;SDS011;39159;45.634;9.420;2024-01-25T05:57:15;120.05;;;54.63;;
53269;SDS011;39159;45.634;9.420;2024-01-25T05:59:42;107.93;;;53.63;;
53269;SDS011;39159;45.634;9.420;2024-01-25T06:02:07;97.80;;;52.80;;
53269;SDS011;39159;45.634;9.420;2024-01-25T06:04:33;104.63;;;51.58;;
53269;SDS011;39159;45.634;9.420;2024-01-25T06:06:59;101.80;;;52.08;;
53269;SDS011;39159;45.634;9.420;2024-01-25T06:09:25;107.28;;;53.03;;
53269;SDS011;39159;45.634;9.420;2024-01-25T06:11:50;104.43;;;52.58;;
53269;SDS011;39159;45.634;9.420;2024-01-25T06:14:16;104.65;;;52.22;;
53269;SDS011;39159;45.634;9.420;2024-01-25T06:16:41;108.78;;;54.40;;
53269;SDS011;39159;45.634;9.420;2024-01-25T06:19:07;111.43;;;56.58;;
53269;SDS011;39159;45.634;9.420;2024-01-25T06:21:33;111.30;;;54.60;;
53269;SDS011;39159;45.634;9.420;2024-01-25T06:24:00;110.45;;;55.25;;
53269;SDS011;39159;45.634;9.420;2024-01-25T06:26:29;106.25;;;52.78;;
53269;SDS011;39159;45.634;9.420;2024-01-25T06:28:54;108.65;;;54.15;;
53269;SDS011;39159;45.634;9.420;2024-01-25T06:31:20;113.80;;;57.90;;
53269;SDS011;39159;45.634;9.420;2024-01-25T06:33:45;116.78;;;56.88;;
53269;SDS011;39159;45.634;9.420;2024-01-25T06:36:15;130.27;;;59.95;;
53269;SDS011;39159;45.634;9.420;2024-01-25T06:38:40;115.55;;;55.53;;
53269;SDS011;39159;45.634;9.420;2024-01-25T06:41:06;117.43;;;57.30;;
53269;SDS011;39159;45.634;9.420;2024-01-25T06:43:32;112.13;;;55.45;;
53269;SDS011;39159;45.634;9.420;2024-01-25T06:45:57;116.10;;;57.50;;
53269;SDS011;39159;45.634;9.420;2024-01-25T06:48:22;120.50;;;57.13;;
53269;SDS011;39159;45.634;9.420;2024-01-25T06:50:48;119.00;;;57.28;;
53269;SDS011;39159;45.634;9.420;2024-01-25T06:53:15;108.97;;;55.15;;
53269;SDS011;39159;45.634;9.420;2024-01-25T06:55:41;112.57;;;55.97;;
53269;SDS011;39159;45.634;9.420;2024-01-25T06:58:08;113.90;;;55.08;;
53269;SDS011;39159;45.634;9.420;2024-01-25T07:00:33;120.25;;;57.80;;
53269;SDS011;39159;45.634;9.420;2024-01-25T07:02:59;118.18;;;57.22;;
53269;SDS011;39159;45.634;9.420;2024-01-25T07:05:24;117.32;;;57.60;;
53269;SDS011;39159;45.634;9.420;2024-01-25T07:07:50;116.88;;;57.83;;
53269;SDS011;39159;45.634;9.420;2024-01-25T07:10:15;113.75;;;54.85;;
53269;SDS011;39159;45.634;9.420;2024-01-25T07:12:41;122.63;;;60.30;;
53269;SDS011;39159;45.634;9.420;2024-01-25T07:15:06;113.72;;;57.10;;
53269;SDS011;39159;45.634;9.420;2024-01-25T07:17:32;112.88;;;56.42;;
53269;SDS011;39159;45.634;9.420;2024-01-25T07:19:57;101.30;;;51.60;;
53269;SDS011;39159;45.634;9.420;2024-01-25T07:22:22;105.80;;;54.40;;
53269;SDS011;39159;45.634;9.420;2024-01-25T07:24:48;106.85;;;53.22;;
53269;SDS011;39159;45.634;9.420;2024-01-25T07:27:14;113.07;;;56.72;;
53269;SDS011;39159;45.634;9.420;2024-01-25T07:29:39;109.25;;;55.75;;
53269;SDS011;39159;45.634;9.420;2024-01-25T07:32:05;108.57;;;58.58;;
53269;SDS011;39159;45.634;9.420;2024-01-25T07:34:30;109.80;;;53.40;;
53269;SDS011;39159;45.634;9.420;2024-01-25T07:36:55;115.63;;;53.30;;
53269;SDS011;39159;45.634;9.420;2024-01-25T07:39:21;107.82;;;54.97;;
53269;SDS011;39159;45.634;9.420;2024-01-25T07:41:46;112.25;;;57.25;;
53269;SDS011;39159;45.634;9.420;2024-01-25T07:44:12;110.93;;;56.75;;
53269;SDS011;39159;45.634;9.420;2024-01-25T07:46:38;100.22;;;54.70;;
53269;SDS011;39159;45.634;9.420;2024-01-25T07:49:04;112.55;;;55.28;;
53269;SDS011;39159;45.634;9.420;2024-01-25T07:51:29;110.60;;;57.60;;
53269;SDS011;39159;45.634;9.420;2024-01-25T07:53:55;123.90;;;61.13;;
53269;SDS011;39159;45.634;9.420;2024-01-25T07:56:20;114.78;;;55.97;;
53269;SDS011;39159;45.634;9.420;2024-01-25T07:58:47;118.25;;;59.05;;
53269;SDS011;39159;45.634;9.420;2024-01-25T08:01:19;119.47;;;59.95;;
53269;SDS011;39159;45.634;9.420;2024-01-25T08:03:44;108.28;;;57.38;;
53269;SDS011;39159;45.634;9.420;2024-01-25T08:06:10;119.13;;;56.42;;
53269;SDS011;39159;45.634;9.420;2024-01-25T08:08:36;114.28;;;56.97;;
53269;SDS011;39159;45.634;9.420;2024-01-25T08:11:02;103.22;;;57.00;;
53269;SDS011;39159;45.634;9.420;2024-01-25T08:13:29;103.95;;;55.50;;
53269;SDS011;39159;45.634;9.420;2024-01-25T08:15:54;99.85;;;53.58;;
53269;SDS011;39159;45.634;9.420;2024-01-25T08:18:20;105.22;;;55.03;;
53269;SDS011;39159;45.634;9.420;2024-01-25T08:20:47;97.68;;;52.03;;
53269;SDS011;39159;45.634;9.420;2024-01-25T08:23:13;102.75;;;54.25;;
53269;SDS011;39159;45.634;9.420;2024-01-25T08:25:39;104.20;;;54.55;;
53269;SDS011;39159;45.634;9.420;2024-01-25T08:28:04;96.63;;;53.70;;
53269;SDS011;39159;45.634;9.420;2024-01-25T08:30:30;104.25;;;56.40;;
53269;SDS011;39159;45.634;9.420;2024-01-25T08:32:55;100.30;;;53.47;;
53269;SDS011;39159;45.634;9.420;2024-01-25T08:35:21;105.25;;;55.50;;
53269;SDS011;39159;45.634;9.420;2024-01-25T08:37:46;91.25;;;50.63;;
53269;SDS011;39159;45.634;9.420;2024-01-25T08:40:12;98.10;;;52.92;;
53269;SDS011;39159;45.634;9.420;2024-01-25T08:42:38;96.35;;;51.92;;
53269;SDS011;39159;45.634;9.420;2024-01-25T08:45:03;99.75;;;53.08;;
53269;SDS011;39159;45.634;9.420;2024-01-25T08:47:32;95.13;;;52.60;;
53269;SDS011;39159;45.634;9.420;2024-01-25T08:49:57;92.25;;;53.80;;
53269;SDS011;39159;45.634;9.420;2024-01-25T08:52:22;97.05;;;52.80;;
53269;SDS011;39159;45.634;9.420;2024-01-25T08:54:48;93.85;;;51.60;;
53269;SDS011;39159;45.634;9.420;2024-01-25T08:57:13;91.63;;;50.35;;
53269;SDS011;39159;45.634;9.420;2024-01-25T08:59:40;86.57;;;49.38;;
53269;SDS011;39159;45.634;9.420;2024-01-25T09:02:05;109.82;;;61.00;;
53269;SDS011;39159;45.634;9.420;2024-01-25T09:04:31;108.97;;;62.38;;
53269;SDS011;39159;45.634;9.420;2024-01-25T09:06:57;119.93;;;64.03;;
53269;SDS011;39159;45.634;9.420;2024-01-25T09:09:23;116.13;;;64.00;;
53269;SDS011;39159;45.634;9.420;2024-01-25T09:11:48;119.65;;;66.85;;
53269;SDS011;39159;45.634;9.420;2024-01-25T09:14:14;116.22;;;65.90;;
53269;SDS011;39159;45.634;9.420;2024-01-25T09:16:39;122.80;;;67.90;;
53269;SDS011;39159;45.634;9.420;2024-01-25T09:19:05;123.60;;;69.30;;
53269;SDS011;39159;45.634;9.420;2024-01-25T09:21:30;116.50;;;65.75;;
53269;SDS011;39159;45.634;9.420;2024-01-25T09:23:55;116.20;;;66.90;;
53269;SDS011;39159;45.634;9.420;2024-01-25T09:26:21;130.00;;;72.50;;
53269;SDS011;39159;45.634;9.420;2024-01-25T09:28:46;114.55;;;66.85;;
53269;SDS011;39159;45.634;9.420;2024-01-25T09:31:12;126.70;;;70.22;;
53269;SDS011;39159;45.634;9.420;2024-01-25T09:33:37;119.03;;;67.70;;
53269;SDS011;39159;45.634;9.420;2024-01-25T09:36:03;119.78;;;69.47;;
53269;SDS011;39159;45.634;9.420;2024-01-25T09:38:29;121.15;;;68.65;;
53269;SDS011;39159;45.634;9.420;2024-01-25T09:40:56;121.80;;;67.88;;
53269;SDS011;39159;45.634;9.420;2024-01-25T09:43:21;117.88;;;67.38;;
53269;SDS011;39159;45.634;9.420;2024-01-25T09:45:48;117.43;;;66.65;;
53269;SDS011;39159;45.634;9.420;2024-01-25T09:48:18;117.43;;;67.97;;
53269;SDS011;39159;45.634;9.420;2024-01-25T09:50:46;123.03;;;69.68;;
53269;SDS011;39159;45.634;9.420;2024-01-25T09:53:14;120.80;;;69.30;;
53269;SDS011;39159;45.634;9.420;2024-01-25T09:58:29;114.07;;;67.25;;
53269;SDS011;39159;45.634;9.420;2024-01-25T10:01:08;112.90;;;65.53;;
53269;SDS011;39159;45.634;9.420;2024-01-25T10:03:39;107.68;;;62.30;;
53269;SDS011;39159;45.634;9.420;2024-01-25T10:06:07;113.20;;;64.50;;
53269;SDS011;39159;45.634;9.420;2024-01-25T10:08:33;103.53;;;60.75;;
53269;SDS011;39159;45.634;9.420;2024-01-25T10:10:59;108.97;;;62.85;;
53269;SDS011;39159;45.634;9.420;2024-01-25T10:13:25;107.15;;;60.38;;
53269;SDS011;39159;45.634;9.420;2024-01-25T10:15:53;103.55;;;60.58;;
53269;SDS011;39159;45.634;9.420;2024-01-25T10:18:21;96.88;;;58.83;;
53269;SDS011;39159;45.634;9.420;2024-01-25T10:20:47;98.90;;;58.58;;
53269;SDS011;39159;45.634;9.420;2024-01-25T10:23:13;98.45;;;58.20;;
53269;SDS011;39159;45.634;9.420;2024-01-25T10:25:38;97.03;;;59.65;;
53269;SDS011;39159;45.634;9.420;2024-01-25T10:28:04;98.43;;;58.67;;
53269;SDS011;39159;45.634;9.420;2024-01-25T10:30:33;98.07;;;58.40;;
53269;SDS011;39159;45.634;9.420;2024-01-25T10:33:00;103.40;;;61.65;;
53269;SDS011;39159;45.634;9.420;2024-01-25T10:35:26;102.15;;;61.28;;
53269;SDS011;39159;45.634;9.420;2024-01-25T10:37:52;108.95;;;60.13;;
53269;SDS011;39159;45.634;9.420;2024-01-25T10:40:18;109.00;;;61.65;;
53269;SDS011;39159;45.634;9.420;2024-01-25T10:42:44;102.55;;;62.08;;
53269;SDS011;39159;45.634;9.420;2024-01-25T10:45:10;103.30;;;63.58;;
53269;SDS011;39159;45.634;9.420;2024-01-25T10:47:36;108.30;;;64.65;;
53269;SDS011;39159;45.634;9.420;2024-01-25T10:50:02;108.03;;;65.38;;
53269;SDS011;39159;45.634;9.420;2024-01-25T10:52:30;113.57;;;65.75;;
53269;SDS011;39159;45.634;9.420;2024-01-25T10:54:57;114.15;;;68.70;;
53269;SDS011;39159;45.634;9.420;2024-01-25T10:57:23;110.45;;;66.95;;
53269;SDS011;39159;45.634;9.420;2024-01-25T10:59:48;117.95;;;67.22;;
53269;SDS011;39159;45.634;9.420;2024-01-25T11:02:14;118.30;;;69.25;;
53269;SDS011;39159;45.634;9.420;2024-01-25T11:04:39;120.10;;;69.55;;
53269;SDS011;39159;45.634;9.420;2024-01-25T11:07:08;122.65;;;70.32;;
53269;SDS011;39159;45.634;9.420;2024-01-25T11:09:34;119.45;;;69.28;;
53269;SDS011;39159;45.634;9.420;2024-01-25T11:12:08;116.80;;;68.50;;
53269;SDS011;39159;45.634;9.420;2024-01-25T11:14:37;114.22;;;66.28;;
53269;SDS011;39159;45.634;9.420;2024-01-25T11:17:19;107.45;;;63.78;;
53269;SDS011;39159;45.634;9.420;2024-01-25T11:19:45;106.88;;;62.42;;
53269;SDS011;39159;45.634;9.420;2024-01-25T11:22:12;104.55;;;62.63;;
53269;SDS011;39159;45.634;9.420;2024-01-25T11:24:38;100.43;;;62.08;;
53269;SDS011;39159;45.634;9.420;2024-01-25T11:27:04;99.80;;;60.05;;
53269;SDS011;39159;45.634;9.420;2024-01-25T11:29:30;105.20;;;62.22;;
53269;SDS011;39159;45.634;9.420;2024-01-25T11:31:56;103.38;;;62.78;;
53269;SDS011;39159;45.634;9.420;2024-01-25T11:34:22;107.97;;;61.75;;
53269;SDS011;39159;45.634;9.420;2024-01-25T11:36:48;102.95;;;62.33;;
53269;SDS011;39159;45.634;9.420;2024-01-25T11:39:14;99.18;;;61.38;;
53269;SDS011;39159;45.634;9.420;2024-01-25T11:41:41;105.82;;;61.15;;
53269;SDS011;39159;45.634;9.420;2024-01-25T11:44:09;105.00;;;60.35;;
53269;SDS011;39159;45.634;9.420;2024-01-25T11:46:35;99.25;;;58.78;;
53269;SDS011;39159;45.634;9.420;2024-01-25T11:49:01;104.47;;;60.20;;
53269;SDS011;39159;45.634;9.420;2024-01-25T11:51:27;100.80;;;58.10;;
53269;SDS011;39159;45.634;9.420;2024-01-25T11:53:52;104.38;;;61.05;;
53269;SDS011;39159;45.634;9.420;2024-01-25T11:56:19;103.22;;;60.88;;
53269;SDS011;39159;45.634;9.420;2024-01-25T11:58:48;103.88;;;59.75;;
53269;SDS011;39159;45.634;9.420;2024-01-25T12:01:14;100.22;;;57.70;;
53269;SDS011;39159;45.634;9.420;2024-01-25T12:03:40;97.72;;;57.10;;
53269;SDS011;39159;45.634;9.420;2024-01-25T12:06:06;92.22;;;55.40;;
53269;SDS011;39159;45.634;9.420;2024-01-25T12:08:34;99.97;;;58.33;;
53269;SDS011;39159;45.634;9.420;2024-01-25T12:11:06;95.38;;;59.78;;
53269;SDS011;39159;45.634;9.420;2024-01-25T12:13:33;101.22;;;57.47;;
53269;SDS011;39159;45.634;9.420;2024-01-25T12:16:04;97.10;;;56.88;;
53269;SDS011;39159;45.634;9.420;2024-01-25T12:18:30;90.72;;;57.90;;
53269;SDS011;39159;45.634;9.420;2024-01-25T12:20:59;90.18;;;57.58;;
53269;SDS011;39159;45.634;9.420;2024-01-25T12:26:01;99.55;;;57.75;;
53269;SDS011;39159;45.634;9.420;2024-01-25T12:28:29;102.70;;;60.25;;
53269;SDS011;39159;45.634;9.420;2024-01-25T12:30:55;103.47;;;59.60;;
53269;SDS011;39159;45.634;9.420;2024-01-25T12:33:21;96.03;;;60.55;;
53269;SDS011;39159;45.634;9.420;2024-01-25T12:35:46;103.63;;;60.17;;
53269;SDS011;39159;45.634;9.420;2024-01-25T12:38:11;102.07;;;59.50;;
53269;SDS011;39159;45.634;9.420;2024-01-25T12:40:37;102.10;;;60.80;;
53269;SDS011;39159;45.634;9.420;2024-01-25T12:43:02;102.35;;;61.58;;
53269;SDS011;39159;45.634;9.420;2024-01-25T12:45:28;101.78;;;61.13;;
53269;SDS011;39159;45.634;9.420;2024-01-25T12:47:53;100.20;;;61.55;;
53269;SDS011;39159;45.634;9.420;2024-01-25T12:50:19;104.80;;;62.05;;
53269;SDS011;39159;45.634;9.420;2024-01-25T12:52:45;106.03;;;64.13;;
53269;SDS011;39159;45.634;9.420;2024-01-25T12:55:11;105.45;;;63.17;;
53269;SDS011;39159;45.634;9.420;2024-01-25T12:57:36;103.82;;;63.65;;
53269;SDS011;39159;45.634;9.420;2024-01-25T13:00:02;105.60;;;63.00;;
53269;SDS011;39159;45.634;9.420;2024-01-25T13:02:28;103.05;;;62.45;;
53269;SDS011;39159;45.634;9.420;2024-01-25T13:04:53;95.88;;;60.85;;
53269;SDS011;39159;45.634;9.420;2024-01-25T13:07:19;98.68;;;60.17;;
53269;SDS011;39159;45.634;9.420;2024-01-25T13:09:45;98.68;;;62.72;;
53269;SDS011;39159;45.634;9.420;2024-01-25T13:12:10;100.55;;;62.17;;
53269;SDS011;39159;45.634;9.420;2024-01-25T13:14:36;105.07;;;62.60;;
53269;SDS011;39159;45.634;9.420;2024-01-25T13:17:01;95.97;;;60.35;;
53269;SDS011;39159;45.634;9.420;2024-01-25T13:19:26;100.43;;;61.72;;
53269;SDS011;39159;45.634;9.420;2024-01-25T13:21:52;101.78;;;63.85;;
53269;SDS011;39159;45.634;9.420;2024-01-25T13:24:18;99.80;;;58.20;;
53269;SDS011;39159;45.634;9.420;2024-01-25T13:26:43;93.47;;;57.95;;
53269;SDS011;39159;45.634;9.420;2024-01-25T13:29:08;100.30;;;61.92;;
53269;SDS011;39159;45.634;9.420;2024-01-25T13:31:37;109.30;;;64.25;;
53269;SDS011;39159;45.634;9.420;2024-01-25T13:34:03;102.45;;;62.33;;
53269;SDS011;39159;45.634;9.420;2024-01-25T13:36:29;108.07;;;62.10;;
53269;SDS011;39159;45.634;9.420;2024-01-25T13:38:54;102.22;;;64.53;;
53269;SDS011;39159;45.634;9.420;2024-01-25T13:41:20;100.60;;;61.45;;
53269;SDS011;39159;45.634;9.420;2024-01-25T13:43:45;99.72;;;59.60;;
53269;SDS011;39159;45.634;9.420;2024-01-25T13:46:10;98.13;;;58.95;;
53269;SDS011;39159;45.634;9.420;2024-01-25T13:48:36;99.07;;;58.28;;
53269;SDS011;39159;45.634;9.420;2024-01-25T13:51:01;102.65;;;61.28;;
53269;SDS011;39159;45.634;9.420;2024-01-25T13:53:26;101.13;;;58.92;;
53269;SDS011;39159;45.634;9.420;2024-01-25T13:55:52;98.68;;;57.58;;
53269;SDS011;39159;45.634;9.420;2024-01-25T13:58:17;88.85;;;54.10;;
53269;SDS011;39159;45.634;9.420;2024-01-25T14:00:43;92.20;;;55.70;;
53269;SDS011;39159;45.634;9.420;2024-01-25T14:03:08;93.43;;;58.10;;
53269;SDS011;39159;45.634;9.420;2024-01-25T14:05:33;96.80;;;57.50;;
53269;SDS011;39159;45.634;9.420;2024-01-25T14:07:59;101.95;;;58.17;;
53269;SDS011;39159;45.634;9.420;2024-01-25T14:10:24;92.75;;;56.15;;